Time,TemperatureF,DewpointF,PressureIn,WindDirection,WindDirectionDegrees,WindSpeedMPH,WindSpeedGustMPH,Humidity,HourlyPrecipIn,Conditions,Clouds,dailyrainin,SoftwareType,DateUTC
2013-03-25 00:03:00,27.0,16.0,30.14,NE,51,3.0,5.0,64,0.00,,,0.00,weatherlink.com 1.10,2013-03-25 06:03:00,
2013-03-25 00:18:00,26.2,16.0,30.14,NNE,28,1.0,5.0,66,0.00,,,0.00,weatherlink.com 1.10,2013-03-25 06:18:00,
2013-03-25 00:33:00,25.9,16.0,30.15,NE,48,4.0,5.0,66,0.00,,,0.00,weatherlink.com 1.10,2013-03-25 06:33:00,
2013-03-25 00:48:00,25.4,16.0,30.15,NE,34,0.0,1.0,67,0.00,,,0.00,weatherlink.com 1.10,2013-03-25 06:48:00,
2013-03-25 01:03:00,24.0,16.0,30.15,North,350,0.0,1.0,72,0.00,,,0.00,weatherlink.com 1.10,2013-03-25 07:03:00,
2013-03-25 01:18:00,23.4,18.0,30.15,East,101,0.0,3.0,79,0.00,,,0.00,weatherlink.com 1.10,2013-03-25 07:18:00,
2013-03-25 01:33:00,-999.0,-99.9,30.15,North,-999,-999.0,-999.0,-999,0.00,,,0.00,weatherlink.com 1.10,2013-03-25 07:33:00,
2013-03-25 01:48:00,-999.0,-99.9,30.15,North,-999,-999.0,-999.0,-999,0.00,,,0.00,weatherlink.com 1.10,2013-03-25 07:48:00,
2013-03-25 02:04:00,-999.0,-99.9,30.14,North,-999,-999.0,-999.0,-999,0.00,,,0.00,weatherlink.com 1.10,2013-03-25 08:04:00,
2013-03-25 02:19:00,-999.0,-99.9,30.14,North,-999,-999.0,-999.0,-999,0.00,,,0.00,weatherlink.com 1.10,2013-03-25 08:19:00,
2013-03-25 02:34:00,-999.0,-99.9,30.13,North,-999,-999.0,-999.0,-999,0.00,,,0.00,weatherlink.com 1.10,2013-03-25 08:34:00,
2013-03-25 02:49:00,-999.0,-99.9,30.13,North,-999,-999.0,-999.0,-999,0.00,,,0.00,weatherlink.com 1.10,2013-03-25 08:49:00,
2013-03-25 03:04:00,-999.0,-99.9,30.13,North,-999,-999.0,-999.0,-999,0.00,,,0.00,weatherlink.com 1.10,2013-03-25 09:04:00,
2013-03-25 03:19:00,-999.0,-99.9,30.13,North,-999,-999.0,-999.0,-999,0.00,,,0.00,weatherlink.com 1.10,2013-03-25 09:19:00,
2013-03-25 03:34:00,-999.0,-99.9,30.13,North,-999,-999.0,-999.0,-999,0.00,,,0.00,weatherlink.com 1.10,2013-03-25 09:34:00,
2013-03-25 03:49:00,-999.0,-99.9,30.13,North,-999,-999.0,-999.0,-999,0.00,,,0.00,weatherlink.com 1.10,2013-03-25 09:49:00,
2013-03-25 04:04:00,-999.0,-99.9,30.12,North,-999,-999.0,-999.0,-999,0.00,,,0.00,weatherlink.com 1.10,2013-03-25 10:04:00,
2013-03-25 04:19:00,19.2,14.0,30.13,East,91,0.0,0.0,81,0.00,,,0.00,weatherlink.com 1.10,2013-03-25 10:19:00,
2013-03-25 04:34:00,18.6,15.0,30.13,East,91,0.0,0.0,84,0.00,,,0.00,weatherlink.com 1.10,2013-03-25 10:34:00,
2013-03-25 04:49:00,18.1,14.0,30.14,East,91,0.0,0.0,84,0.00,,,0.00,weatherlink.com 1.10,2013-03-25 10:49:00,
2013-03-25 05:04:00,18.8,15.0,30.14,North,10,0.0,2.0,83,0.00,,,0.00,weatherlink.com 1.10,2013-03-25 11:04:00,
2013-03-25 05:19:00,18.3,14.0,30.15,NNE,13,0.0,1.0,82,0.00,,,0.00,weatherlink.com 1.10,2013-03-25 11:19:00,
2013-03-25 05:34:00,17.9,14.0,30.15,NNE,13,0.0,1.0,83,0.00,,,0.00,weatherlink.com 1.10,2013-03-25 11:34:00,
2013-03-25 05:49:00,17.5,14.0,30.16,NNE,13,0.0,0.0,84,0.00,,,0.00,weatherlink.com 1.10,2013-03-25 11:49:00,
2013-03-25 06:04:00,17.1,14.0,30.16,NNE,13,0.0,0.0,86,0.00,,,0.00,weatherlink.com 1.10,2013-03-25 12:04:00,
2013-03-25 06:19:00,16.4,14.0,30.16,NNE,14,1.0,1.0,88,0.00,,,0.00,weatherlink.com 1.10,2013-03-25 12:19:00,
2013-03-25 06:34:00,16.5,14.0,30.16,NNE,14,0.0,0.0,89,0.00,,,0.00,weatherlink.com 1.10,2013-03-25 12:34:00,
2013-03-25 06:49:00,16.4,14.0,30.17,NNE,14,0.0,0.0,88,0.00,,,0.00,weatherlink.com 1.10,2013-03-25 12:49:00,
2013-03-25 07:04:00,16.4,13.0,30.17,NNE,13,0.0,1.0,87,0.00,,,0.00,weatherlink.com 1.10,2013-03-25 13:04:00,
2013-03-25 07:19:00,18.4,14.0,30.17,NNE,26,4.0,5.0,83,0.00,,,0.00,weatherlink.com 1.10,2013-03-25 13:19:00,
2013-03-25 07:35:00,18.6,14.0,30.17,NNE,17,0.0,2.0,81,0.00,,,0.00,weatherlink.com 1.10,2013-03-25 13:35:00,
2013-03-25 07:50:00,17.5,13.0,30.18,NNE,17,0.0,0.0,83,0.00,,,0.00,weatherlink.com 1.10,2013-03-25 13:50:00,
2013-03-25 08:05:00,17.2,14.0,30.18,NNE,17,0.0,0.0,85,0.00,,,0.00,weatherlink.com 1.10,2013-03-25 14:05:00,
2013-03-25 08:20:00,-999.0,-99.9,30.18,North,-999,-999.0,-999.0,-999,0.00,,,0.00,weatherlink.com 1.10,2013-03-25 14:20:00,
2013-03-25 08:35:00,-999.0,-99.9,30.18,North,-999,-999.0,-999.0,-999,0.00,,,0.00,weatherlink.com 1.10,2013-03-25 14:35:00,
2013-03-25 08:50:00,-999.0,-99.9,30.17,North,-999,-999.0,-999.0,-999,0.00,,,0.00,weatherlink.com 1.10,2013-03-25 14:50:00,
2013-03-25 09:05:00,-999.0,-99.9,30.17,North,-999,-999.0,-999.0,-999,0.00,,,0.00,weatherlink.com 1.10,2013-03-25 15:05:00,
2013-03-25 09:20:00,-999.0,-99.9,30.16,North,-999,-999.0,-999.0,-999,0.00,,,0.00,weatherlink.com 1.10,2013-03-25 15:20:00,
2013-03-25 09:35:00,-999.0,-99.9,30.16,North,-999,-999.0,-999.0,-999,0.00,,,0.00,weatherlink.com 1.10,2013-03-25 15:35:00,
2013-03-25 09:50:00,-999.0,-99.9,30.16,North,-999,-999.0,-999.0,-999,0.00,,,0.00,weatherlink.com 1.10,2013-03-25 15:50:00,
2013-03-25 10:05:00,-999.0,-99.9,30.16,North,-999,-999.0,-999.0,-999,0.00,,,0.00,weatherlink.com 1.10,2013-03-25 16:05:00,
2013-03-25 10:20:00,-999.0,-99.9,30.16,North,-999,-999.0,-999.0,-999,0.00,,,0.00,weatherlink.com 1.10,2013-03-25 16:20:00,
2013-03-25 10:35:00,28.5,17.0,30.15,WNW,298,0.0,3.0,63,0.00,,,0.00,weatherlink.com 1.10,2013-03-25 16:35:00,
2013-03-25 10:50:00,29.5,17.0,30.15,WNW,298,0.0,2.0,60,0.00,,,0.00,weatherlink.com 1.10,2013-03-25 16:50:00,
2013-03-25 11:05:00,31.5,18.0,30.15,WNW,294,0.0,3.0,58,0.00,,,0.00,weatherlink.com 1.10,2013-03-25 17:05:00,
2013-03-25 11:21:00,32.8,17.0,30.15,ESE,105,0.0,3.0,53,0.00,,,0.00,weatherlink.com 1.10,2013-03-25 17:21:00,
2013-03-25 11:36:00,33.8,17.0,30.14,SW,223,2.0,5.0,50,0.00,,,0.00,weatherlink.com 1.10,2013-03-25 17:36:00,
2013-03-25 11:51:00,35.0,14.0,30.14,SSW,196,3.0,7.0,43,0.00,,,0.00,weatherlink.com 1.10,2013-03-25 17:51:00,
2013-03-25 12:21:00,37.0,14.0,30.13,South,174,5.0,10.0,39,0.00,,,0.00,weatherlink.com 1.10,2013-03-25 18:21:00,
2013-03-25 12:36:00,37.9,14.0,30.12,South,184,4.0,9.0,37,0.00,,,0.00,weatherlink.com 1.10,2013-03-25 18:36:00,
2013-03-25 12:51:00,38.9,14.0,30.11,SW,216,0.0,9.0,36,0.00,,,0.00,weatherlink.com 1.10,2013-03-25 18:51:00,
2013-03-25 13:06:00,40.1,16.0,30.10,SSE,165,5.0,9.0,37,0.00,,,0.00,weatherlink.com 1.10,2013-03-25 19:06:00,
2013-03-25 13:21:00,41.6,15.0,30.09,SE,132,3.0,8.0,34,0.00,,,0.00,weatherlink.com 1.10,2013-03-25 19:21:00,
2013-03-25 13:51:00,43.2,15.0,30.08,South,182,5.0,8.0,32,0.00,,,0.00,weatherlink.com 1.10,2013-03-25 19:51:00,
2013-03-25 14:21:00,44.6,16.0,30.06,WNW,293,3.0,8.0,32,0.00,,,0.00,weatherlink.com 1.10,2013-03-25 20:21:00,
2013-03-25 14:36:00,46.5,19.0,30.06,SE,124,6.0,7.0,34,0.00,,,0.00,weatherlink.com 1.10,2013-03-25 20:36:00,
2013-03-25 14:51:00,45.9,19.0,30.05,SW,223,7.0,8.0,34,0.00,,,0.00,weatherlink.com 1.10,2013-03-25 20:51:00,
2013-03-25 15:21:00,47.3,18.0,30.03,WNW,296,0.0,7.0,31,0.00,,,0.00,weatherlink.com 1.10,2013-03-25 21:21:00,
2013-03-25 15:37:00,48.4,18.0,30.02,NW,317,3.0,8.0,30,0.00,,,0.00,weatherlink.com 1.10,2013-03-25 21:37:00,
2013-03-25 15:52:00,48.1,19.0,30.02,NW,318,4.0,6.0,32,0.00,,,0.00,weatherlink.com 1.10,2013-03-25 21:52:00,
2013-03-25 16:07:00,48.8,20.0,30.01,WSW,246,3.0,6.0,32,0.00,,,0.00,weatherlink.com 1.10,2013-03-25 22:07:00,
2013-03-25 16:22:00,48.4,18.0,30.01,South,175,0.0,7.0,30,0.00,,,0.00,weatherlink.com 1.10,2013-03-25 22:22:00,
2013-03-25 16:37:00,48.6,20.0,30.00,NW,317,0.0,8.0,32,0.00,,,0.00,weatherlink.com 1.10,2013-03-25 22:37:00,
2013-03-25 16:52:00,49.4,21.0,29.99,WNW,300,6.0,9.0,33,0.00,,,0.00,weatherlink.com 1.10,2013-03-25 22:52:00,
2013-03-25 17:07:00,49.0,19.0,29.99,West,259,1.0,8.0,31,0.00,,,0.00,weatherlink.com 1.10,2013-03-25 23:07:00,
2013-03-25 17:22:00,48.2,20.0,29.98,NW,308,4.0,9.0,33,0.00,,,0.00,weatherlink.com 1.10,2013-03-25 23:22:00,
2013-03-25 17:37:00,48.4,21.0,29.98,WNW,284,5.0,5.0,34,0.00,,,0.00,weatherlink.com 1.10,2013-03-25 23:37:00,
2013-03-25 17:52:00,47.6,20.0,29.98,West,276,2.0,5.0,33,0.00,,,0.00,weatherlink.com 1.10,2013-03-25 23:52:00,
2013-03-25 18:07:00,46.5,19.0,29.97,NW,325,3.0,5.0,34,0.00,,,0.00,weatherlink.com 1.10,2013-03-26 00:07:00,
2013-03-25 18:22:00,46.0,20.0,29.96,NW,320,2.0,4.0,36,0.00,,,0.00,weatherlink.com 1.10,2013-03-26 00:22:00,
2013-03-25 18:37:00,45.6,19.0,29.96,NW,321,0.0,4.0,35,0.00,,,0.00,weatherlink.com 1.10,2013-03-26 00:37:00,
2013-03-25 18:52:00,45.3,21.0,29.96,NW,321,0.0,0.0,39,0.00,,,0.00,weatherlink.com 1.10,2013-03-26 00:52:00,
2013-03-25 19:07:00,44.6,23.0,29.96,NNE,15,3.0,3.0,43,0.00,,,0.00,weatherlink.com 1.10,2013-03-26 01:07:00,
2013-03-25 19:37:00,42.7,23.0,29.95,NE,49,4.0,5.0,46,0.00,,,0.00,weatherlink.com 1.10,2013-03-26 01:37:00,
2013-03-25 19:52:00,41.0,22.0,29.95,NE,55,6.0,8.0,47,0.00,,,0.00,weatherlink.com 1.10,2013-03-26 01:52:00,
2013-03-25 20:07:00,39.9,22.0,29.95,ENE,63,9.0,9.0,49,0.00,,,0.00,weatherlink.com 1.10,2013-03-26 02:07:00,
2013-03-25 20:22:00,39.4,23.0,29.95,ENE,63,8.0,9.0,52,0.00,,,0.00,weatherlink.com 1.10,2013-03-26 02:22:00,
2013-03-25 20:37:00,39.1,23.0,29.94,North,10,0.0,9.0,53,0.00,,,0.00,weatherlink.com 1.10,2013-03-26 02:37:00,
2013-03-25 20:52:00,39.4,23.0,29.95,NNE,16,1.0,4.0,53,0.00,,,0.00,weatherlink.com 1.10,2013-03-26 02:52:00,
2013-03-25 21:07:00,38.9,22.0,29.95,North,11,0.0,4.0,52,0.00,,,0.00,weatherlink.com 1.10,2013-03-26 03:07:00,
2013-03-25 21:22:00,38.2,22.0,29.95,NNE,15,2.0,3.0,53,0.00,,,0.00,weatherlink.com 1.10,2013-03-26 03:22:00,
2013-03-25 21:37:00,38.4,23.0,29.95,North,355,9.0,10.0,54,0.00,,,0.00,weatherlink.com 1.10,2013-03-26 03:37:00,
2013-03-25 21:52:00,39.6,23.0,29.95,NNW,336,3.0,8.0,51,0.00,,,0.00,weatherlink.com 1.10,2013-03-26 03:52:00,
2013-03-25 22:07:00,38.6,23.0,29.95,NNW,346,3.0,5.0,53,0.00,,,0.00,weatherlink.com 1.10,2013-03-26 04:07:00,
2013-03-25 22:22:00,38.2,23.0,29.95,NNW,331,4.0,8.0,55,0.00,,,0.00,weatherlink.com 1.10,2013-03-26 04:22:00,
2013-03-25 22:37:00,38.3,23.0,29.95,NW,316,7.0,10.0,55,0.00,,,0.00,weatherlink.com 1.10,2013-03-26 04:37:00,
2013-03-25 22:52:00,38.0,23.0,29.95,NNW,348,4.0,7.0,56,0.00,,,0.00,weatherlink.com 1.10,2013-03-26 04:52:00,
2013-03-25 23:07:00,37.7,24.0,29.95,NNE,13,5.0,7.0,57,0.00,,,0.00,weatherlink.com 1.10,2013-03-26 05:07:00,
2013-03-25 23:22:00,37.8,24.0,29.95,NNW,342,4.0,7.0,57,0.00,,,0.00,weatherlink.com 1.10,2013-03-26 05:22:00,
2013-03-25 23:37:00,37.7,24.0,29.95,NNW,344,8.0,8.0,58,0.00,,,0.00,weatherlink.com 1.10,2013-03-26 05:37:00,
2013-03-25 23:52:00,37.6,24.0,29.95,North,355,6.0,9.0,58,0.00,,,0.00,weatherlink.com 1.10,2013-03-26 05:52:00,